sensor_id;sensor_type;location;lat;lon;timestamp;temperature;humidity
17701;DHT22;8969;48.576;12.580;2022-12-07T00:01:31;3.60;99.90
17701;DHT22;8969;48.576;12.580;2022-12-07T00:04:01;3.60;99.90
17701;DHT22;8969;48.576;12.580;2022-12-07T00:06:32;3.60;99.90
17701;DHT22;8969;48.576;12.580;2022-12-07T00:09:02;3.60;99.90
17701;DHT22;8969;48.576;12.580;2022-12-07T00:11:33;3.60;99.90
17701;DHT22;8969;48.576;12.580;2022-12-07T00:14:05;3.60;99.90
17701;DHT22;8969;48.576;12.580;2022-12-07T00:16:34;3.60;99.90
17701;DHT22;8969;48.576;12.580;2022-12-07T00:19:03;3.60;99.90
17701;DHT22;8969;48.576;12.580;2022-12-07T00:21:34;3.60;99.90
17701;DHT22;8969;48.576;12.580;2022-12-07T00:24:05;3.60;99.90
17701;DHT22;8969;48.576;12.580;2022-12-07T00:26:35;3.60;99.90
17701;DHT22;8969;48.576;12.580;2022-12-07T00:29:06;3.60;99.90
17701;DHT22;8969;48.576;12.580;2022-12-07T00:31:36;3.60;99.90
17701;DHT22;8969;48.576;12.580;2022-12-07T00:34:07;3.60;99.90
17701;DHT22;8969;48.576;12.580;2022-12-07T00:36:35;3.60;99.90
17701;DHT22;8969;48.576;12.580;2022-12-07T00:39:04;3.60;99.90
17701;DHT22;8969;48.576;12.580;2022-12-07T00:41:32;3.60;99.90
17701;DHT22;8969;48.576;12.580;2022-12-07T00:44:00;3.60;99.90
17701;DHT22;8969;48.576;12.580;2022-12-07T00:46:30;3.60;99.90
17701;DHT22;8969;48.576;12.580;2022-12-07T00:48:58;3.60;99.90
17701;DHT22;8969;48.576;12.580;2022-12-07T00:51:26;3.50;99.90
17701;DHT22;8969;48.576;12.580;2022-12-07T00:53:54;3.50;99.90
17701;DHT22;8969;48.576;12.580;2022-12-07T00:56:26;3.50;99.90
17701;DHT22;8969;48.576;12.580;2022-12-07T00:58:56;3.60;99.90
17701;DHT22;8969;48.576;12.580;2022-12-07T01:01:27;3.60;99.90
17701;DHT22;8969;48.576;12.580;2022-12-07T01:03:55;3.60;99.90
17701;DHT22;8969;48.576;12.580;2022-12-07T01:06:25;3.60;99.90
17701;DHT22;8969;48.576;12.580;2022-12-07T01:08:53;3.60;99.90
17701;DHT22;8969;48.576;12.580;2022-12-07T01:11:22;3.60;99.90
17701;DHT22;8969;48.576;12.580;2022-12-07T01:13:54;3.60;99.90
17701;DHT22;8969;48.576;12.580;2022-12-07T01:16:25;3.60;99.90
17701;DHT22;8969;48.576;12.580;2022-12-07T01:18:54;3.50;99.90
17701;DHT22;8969;48.576;12.580;2022-12-07T01:21:24;3.50;99.90
17701;DHT22;8969;48.576;12.580;2022-12-07T01:23:53;3.60;99.90
17701;DHT22;8969;48.576;12.580;2022-12-07T01:26:24;3.60;99.90
17701;DHT22;8969;48.576;12.580;2022-12-07T01:28:55;3.60;99.90
17701;DHT22;8969;48.576;12.580;2022-12-07T01:31:27;3.60;99.90
17701;DHT22;8969;48.576;12.580;2022-12-07T01:33:57;3.60;99.90
17701;DHT22;8969;48.576;12.580;2022-12-07T01:36:27;3.50;99.90
17701;DHT22;8969;48.576;12.580;2022-12-07T01:38:58;3.50;99.90
17701;DHT22;8969;48.576;12.580;2022-12-07T01:41:29;3.50;99.90
17701;DHT22;8969;48.576;12.580;2022-12-07T01:44:14;3.50;99.90
17701;DHT22;8969;48.576;12.580;2022-12-07T01:46:44;3.50;99.90
17701;DHT22;8969;48.576;12.580;2022-12-07T01:49:20;3.50;99.90
17701;DHT22;8969;48.576;12.580;2022-12-07T01:51:50;3.50;99.90
17701;DHT22;8969;48.576;12.580;2022-12-07T01:54:20;3.50;99.90
17701;DHT22;8969;48.576;12.580;2022-12-07T01:56:50;3.50;99.90
17701;DHT22;8969;48.576;12.580;2022-12-07T01:59:23;3.50;99.90
17701;DHT22;8969;48.576;12.580;2022-12-07T02:01:53;3.50;99.90
17701;DHT22;8969;48.576;12.580;2022-12-07T02:04:22;3.40;99.90
17701;DHT22;8969;48.576;12.580;2022-12-07T02:06:51;3.50;99.90
17701;DHT22;8969;48.576;12.580;2022-12-07T02:09:20;3.40;99.90
17701;DHT22;8969;48.576;12.580;2022-12-07T02:16:13;3.50;99.90
17701;DHT22;8969;48.576;12.580;2022-12-07T02:18:52;3.50;99.90
17701;DHT22;8969;48.576;12.580;2022-12-07T02:21:29;3.50;99.90
17701;DHT22;8969;48.576;12.580;2022-12-07T02:24:15;3.50;99.90
17701;DHT22;8969;48.576;12.580;2022-12-07T02:27:10;3.50;99.90
17701;DHT22;8969;48.576;12.580;2022-12-07T02:29:46;3.50;99.90
17701;DHT22;8969;48.576;12.580;2022-12-07T02:32:18;3.40;99.90
17701;DHT22;8969;48.576;12.580;2022-12-07T02:34:49;3.50;99.90
17701;DHT22;8969;48.576;12.580;2022-12-07T02:37:27;3.50;99.90
17701;DHT22;8969;48.576;12.580;2022-12-07T02:39:59;3.50;99.90
17701;DHT22;8969;48.576;12.580;2022-12-07T02:42:33;3.40;99.90
17701;DHT22;8969;48.576;12.580;2022-12-07T02:45:07;3.40;99.90
17701;DHT22;8969;48.576;12.580;2022-12-07T02:47:37;3.40;99.90
17701;DHT22;8969;48.576;12.580;2022-12-07T02:50:08;3.40;99.90
17701;DHT22;8969;48.576;12.580;2022-12-07T02:52:36;3.40;99.90
17701;DHT22;8969;48.576;12.580;2022-12-07T02:55:05;3.40;99.90
17701;DHT22;8969;48.576;12.580;2022-12-07T02:57:50;3.40;99.90
17701;DHT22;8969;48.576;12.580;2022-12-07T03:00:23;3.30;99.90
17701;DHT22;8969;48.576;12.580;2022-12-07T03:02:55;3.40;99.90
17701;DHT22;8969;48.576;12.580;2022-12-07T03:05:50;3.40;99.90
17701;DHT22;8969;48.576;12.580;2022-12-07T03:08:25;3.40;99.90
17701;DHT22;8969;48.576;12.580;2022-12-07T03:10:58;3.40;99.90
17701;DHT22;8969;48.576;12.580;2022-12-07T03:13:30;3.30;99.90
17701;DHT22;8969;48.576;12.580;2022-12-07T03:16:09;3.30;99.90
17701;DHT22;8969;48.576;12.580;2022-12-07T03:18:40;3.30;99.90
17701;DHT22;8969;48.576;12.580;2022-12-07T03:21:14;3.30;99.90
17701;DHT22;8969;48.576;12.580;2022-12-07T03:23:45;3.40;99.90
17701;DHT22;8969;48.576;12.580;2022-12-07T03:26:16;3.30;99.90
17701;DHT22;8969;48.576;12.580;2022-12-07T03:28:50;3.30;99.90
17701;DHT22;8969;48.576;12.580;2022-12-07T03:31:24;3.30;99.90
17701;DHT22;8969;48.576;12.580;2022-12-07T03:33:59;3.30;99.90
17701;DHT22;8969;48.576;12.580;2022-12-07T03:36:31;3.30;99.90
17701;DHT22;8969;48.576;12.580;2022-12-07T03:39:07;3.30;99.90
17701;DHT22;8969;48.576;12.580;2022-12-07T03:41:37;3.30;99.90
17701;DHT22;8969;48.576;12.580;2022-12-07T03:44:12;3.30;99.90
17701;DHT22;8969;48.576;12.580;2022-12-07T03:46:51;3.30;99.90
17701;DHT22;8969;48.576;12.580;2022-12-07T03:49:27;3.30;99.90
17701;DHT22;8969;48.576;12.580;2022-12-07T03:52:02;3.30;99.90
17701;DHT22;8969;48.576;12.580;2022-12-07T03:54:34;3.30;99.90
17701;DHT22;8969;48.576;12.580;2022-12-07T03:57:04;3.30;99.90
17701;DHT22;8969;48.576;12.580;2022-12-07T03:59:34;3.30;99.90
17701;DHT22;8969;48.576;12.580;2022-12-07T04:02:05;3.30;99.90
17701;DHT22;8969;48.576;12.580;2022-12-07T04:04:35;3.30;99.90
17701;DHT22;8969;48.576;12.580;2022-12-07T04:07:04;3.30;99.90
17701;DHT22;8969;48.576;12.580;2022-12-07T04:09:33;3.30;99.90
17701;DHT22;8969;48.576;12.580;2022-12-07T04:12:01;3.30;99.90
17701;DHT22;8969;48.576;12.580;2022-12-07T04:14:29;3.30;99.90
17701;DHT22;8969;48.576;12.580;2022-12-07T04:16:58;3.30;99.90
17701;DHT22;8969;48.576;12.580;2022-12-07T04:19:30;3.30;99.90
17701;DHT22;8969;48.576;12.580;2022-12-07T04:22:00;3.30;99.90
17701;DHT22;8969;48.576;12.580;2022-12-07T04:24:29;3.30;99.90
17701;DHT22;8969;48.576;12.580;2022-12-07T04:26:57;3.20;99.90
17701;DHT22;8969;48.576;12.580;2022-12-07T04:29:26;3.20;99.90
17701;DHT22;8969;48.576;12.580;2022-12-07T04:31:55;3.20;99.90
17701;DHT22;8969;48.576;12.580;2022-12-07T04:34:23;3.20;99.90
17701;DHT22;8969;48.576;12.580;2022-12-07T04:36:52;3.20;99.90
17701;DHT22;8969;48.576;12.580;2022-12-07T04:39:23;3.20;99.90
17701;DHT22;8969;48.576;12.580;2022-12-07T04:41:52;3.20;99.90
17701;DHT22;8969;48.576;12.580;2022-12-07T04:44:21;3.20;99.90
17701;DHT22;8969;48.576;12.580;2022-12-07T04:46:50;3.20;99.90
17701;DHT22;8969;48.576;12.580;2022-12-07T04:49:19;3.20;99.90
17701;DHT22;8969;48.576;12.580;2022-12-07T04:51:48;3.20;99.90
17701;DHT22;8969;48.576;12.580;2022-12-07T04:54:18;3.20;99.90
17701;DHT22;8969;48.576;12.580;2022-12-07T04:56:46;3.20;99.90
17701;DHT22;8969;48.576;12.580;2022-12-07T04:59:16;3.20;99.90
17701;DHT22;8969;48.576;12.580;2022-12-07T05:01:44;3.20;99.90
17701;DHT22;8969;48.576;12.580;2022-12-07T05:04:12;3.20;99.90
17701;DHT22;8969;48.576;12.580;2022-12-07T05:06:43;3.20;99.90
17701;DHT22;8969;48.576;12.580;2022-12-07T05:09:33;3.20;99.90
17701;DHT22;8969;48.576;12.580;2022-12-07T05:12:01;3.20;99.90
17701;DHT22;8969;48.576;12.580;2022-12-07T05:14:29;3.20;99.90
17701;DHT22;8969;48.576;12.580;2022-12-07T05:16:57;3.20;99.90
17701;DHT22;8969;48.576;12.580;2022-12-07T05:19:26;3.10;99.90
17701;DHT22;8969;48.576;12.580;2022-12-07T05:21:54;3.20;99.90
17701;DHT22;8969;48.576;12.580;2022-12-07T05:24:23;3.20;99.90
17701;DHT22;8969;48.576;12.580;2022-12-07T05:26:52;3.20;99.90
17701;DHT22;8969;48.576;12.580;2022-12-07T05:29:20;3.20;99.90
17701;DHT22;8969;48.576;12.580;2022-12-07T05:31:49;3.20;99.90
17701;DHT22;8969;48.576;12.580;2022-12-07T05:34:18;3.20;99.90
17701;DHT22;8969;48.576;12.580;2022-12-07T05:36:46;3.20;99.90
17701;DHT22;8969;48.576;12.580;2022-12-07T05:39:14;3.10;99.90
17701;DHT22;8969;48.576;12.580;2022-12-07T05:41:43;3.10;99.90
17701;DHT22;8969;48.576;12.580;2022-12-07T05:44:30;3.10;99.90
17701;DHT22;8969;48.576;12.580;2022-12-07T05:46:58;3.10;99.90
17701;DHT22;8969;48.576;12.580;2022-12-07T05:49:26;3.10;99.90
17701;DHT22;8969;48.576;12.580;2022-12-07T05:51:54;3.10;99.90
17701;DHT22;8969;48.576;12.580;2022-12-07T05:54:22;3.10;99.90
17701;DHT22;8969;48.576;12.580;2022-12-07T05:56:50;3.10;99.90
17701;DHT22;8969;48.576;12.580;2022-12-07T05:59:19;3.10;99.90
17701;DHT22;8969;48.576;12.580;2022-12-07T06:01:57;3.00;99.90
17701;DHT22;8969;48.576;12.580;2022-12-07T06:04:28;3.00;99.90
17701;DHT22;8969;48.576;12.580;2022-12-07T06:06:57;3.00;99.90
17701;DHT22;8969;48.576;12.580;2022-12-07T06:09:27;2.90;99.90
17701;DHT22;8969;48.576;12.580;2022-12-07T06:11:56;2.90;99.90
17701;DHT22;8969;48.576;12.580;2022-12-07T06:14:42;2.90;99.90
17701;DHT22;8969;48.576;12.580;2022-12-07T06:17:13;2.90;99.90
17701;DHT22;8969;48.576;12.580;2022-12-07T06:19:44;2.80;99.90
17701;DHT22;8969;48.576;12.580;2022-12-07T06:22:12;2.80;99.90
17701;DHT22;8969;48.576;12.580;2022-12-07T06:24:42;2.70;99.90
17701;DHT22;8969;48.576;12.580;2022-12-07T06:27:13;2.70;99.90
17701;DHT22;8969;48.576;12.580;2022-12-07T06:29:41;2.60;99.90
17701;DHT22;8969;48.576;12.580;2022-12-07T06:32:10;2.60;99.90
17701;DHT22;8969;48.576;12.580;2022-12-07T06:34:40;2.60;99.90
17701;DHT22;8969;48.576;12.580;2022-12-07T06:37:08;2.50;99.90
17701;DHT22;8969;48.576;12.580;2022-12-07T06:39:36;2.50;99.90
17701;DHT22;8969;48.576;12.580;2022-12-07T06:42:05;2.40;99.90
17701;DHT22;8969;48.576;12.580;2022-12-07T06:44:35;2.40;99.90
17701;DHT22;8969;48.576;12.580;2022-12-07T06:47:04;2.40;99.90
17701;DHT22;8969;48.576;12.580;2022-12-07T06:49:55;2.30;99.90
17701;DHT22;8969;48.576;12.580;2022-12-07T06:52:23;2.30;99.90
17701;DHT22;8969;48.576;12.580;2022-12-07T06:54:52;2.30;99.90
17701;DHT22;8969;48.576;12.580;2022-12-07T06:57:20;2.30;99.90
17701;DHT22;8969;48.576;12.580;2022-12-07T06:59:49;2.20;99.90
17701;DHT22;8969;48.576;12.580;2022-12-07T07:02:18;2.20;99.90
17701;DHT22;8969;48.576;12.580;2022-12-07T07:04:47;2.20;99.90
17701;DHT22;8969;48.576;12.580;2022-12-07T07:07:16;2.20;99.90
17701;DHT22;8969;48.576;12.580;2022-12-07T07:09:44;2.20;99.90
17701;DHT22;8969;48.576;12.580;2022-12-07T07:12:13;2.20;99.90
17701;DHT22;8969;48.576;12.580;2022-12-07T07:14:41;2.20;99.90
17701;DHT22;8969;48.576;12.580;2022-12-07T07:17:10;2.20;99.90
17701;DHT22;8969;48.576;12.580;2022-12-07T07:19:38;2.20;99.90
17701;DHT22;8969;48.576;12.580;2022-12-07T07:22:06;2.20;99.90
17701;DHT22;8969;48.576;12.580;2022-12-07T07:24:36;2.30;99.90
17701;DHT22;8969;48.576;12.580;2022-12-07T07:27:04;2.30;99.90
17701;DHT22;8969;48.576;12.580;2022-12-07T07:29:33;2.30;99.90
17701;DHT22;8969;48.576;12.580;2022-12-07T07:32:01;2.40;99.90
17701;DHT22;8969;48.576;12.580;2022-12-07T07:34:33;2.40;99.90
17701;DHT22;8969;48.576;12.580;2022-12-07T07:37:01;2.40;99.90
17701;DHT22;8969;48.576;12.580;2022-12-07T07:39:30;2.40;99.90
17701;DHT22;8969;48.576;12.580;2022-12-07T07:42:00;2.50;99.90
17701;DHT22;8969;48.576;12.580;2022-12-07T07:44:31;2.50;99.90
17701;DHT22;8969;48.576;12.580;2022-12-07T07:47:02;2.60;99.90
17701;DHT22;8969;48.576;12.580;2022-12-07T07:49:30;2.60;99.90
17701;DHT22;8969;48.576;12.580;2022-12-07T07:51:58;2.80;99.90
17701;DHT22;8969;48.576;12.580;2022-12-07T07:54:27;2.80;99.90
17701;DHT22;8969;48.576;12.580;2022-12-07T07:56:55;2.90;99.90
17701;DHT22;8969;48.576;12.580;2022-12-07T07:59:25;3.00;99.90
17701;DHT22;8969;48.576;12.580;2022-12-07T08:01:54;3.00;99.90
17701;DHT22;8969;48.576;12.580;2022-12-07T08:04:22;3.10;99.90
17701;DHT22;8969;48.576;12.580;2022-12-07T08:06:51;3.20;99.90
17701;DHT22;8969;48.576;12.580;2022-12-07T08:09:19;3.20;99.90
17701;DHT22;8969;48.576;12.580;2022-12-07T08:11:48;3.30;99.90
17701;DHT22;8969;48.576;12.580;2022-12-07T08:14:16;3.40;99.90
17701;DHT22;8969;48.576;12.580;2022-12-07T08:16:46;3.40;99.90
17701;DHT22;8969;48.576;12.580;2022-12-07T08:19:14;3.50;99.90
17701;DHT22;8969;48.576;12.580;2022-12-07T08:21:42;3.60;99.90
17701;DHT22;8969;48.576;12.580;2022-12-07T08:24:11;3.70;99.90
17701;DHT22;8969;48.576;12.580;2022-12-07T08:26:40;3.70;99.90
17701;DHT22;8969;48.576;12.580;2022-12-07T08:29:08;3.70;99.90
17701;DHT22;8969;48.576;12.580;2022-12-07T08:31:36;3.60;99.90
17701;DHT22;8969;48.576;12.580;2022-12-07T08:34:07;3.60;99.90
17701;DHT22;8969;48.576;12.580;2022-12-07T08:36:36;3.70;99.90
17701;DHT22;8969;48.576;12.580;2022-12-07T08:39:04;3.70;99.90
17701;DHT22;8969;48.576;12.580;2022-12-07T08:41:53;3.70;99.90
17701;DHT22;8969;48.576;12.580;2022-12-07T08:44:21;3.70;99.90
17701;DHT22;8969;48.576;12.580;2022-12-07T08:46:52;3.70;99.90
17701;DHT22;8969;48.576;12.580;2022-12-07T08:49:26;3.70;99.90
17701;DHT22;8969;48.576;12.580;2022-12-07T08:51:55;3.80;99.90
17701;DHT22;8969;48.576;12.580;2022-12-07T08:54:24;3.90;99.90
17701;DHT22;8969;48.576;12.580;2022-12-07T08:56:53;3.90;99.90
17701;DHT22;8969;48.576;12.580;2022-12-07T08:59:26;4.00;99.90
17701;DHT22;8969;48.576;12.580;2022-12-07T09:01:55;4.00;99.90
17701;DHT22;8969;48.576;12.580;2022-12-07T09:04:25;4.00;99.90
17701;DHT22;8969;48.576;12.580;2022-12-07T09:06:54;4.10;99.90
17701;DHT22;8969;48.576;12.580;2022-12-07T09:09:23;4.20;99.90
17701;DHT22;8969;48.576;12.580;2022-12-07T09:11:51;4.20;99.90
17701;DHT22;8969;48.576;12.580;2022-12-07T09:14:19;4.30;99.90
17701;DHT22;8969;48.576;12.580;2022-12-07T09:16:47;4.30;99.90
17701;DHT22;8969;48.576;12.580;2022-12-07T09:19:15;4.30;99.90
17701;DHT22;8969;48.576;12.580;2022-12-07T09:21:45;4.40;99.90
17701;DHT22;8969;48.576;12.580;2022-12-07T09:24:13;4.50;99.90
17701;DHT22;8969;48.576;12.580;2022-12-07T09:26:41;4.50;99.90
17701;DHT22;8969;48.576;12.580;2022-12-07T09:29:09;4.40;99.90
17701;DHT22;8969;48.576;12.580;2022-12-07T09:31:37;4.50;99.90
17701;DHT22;8969;48.576;12.580;2022-12-07T09:34:05;4.60;99.90
17701;DHT22;8969;48.576;12.580;2022-12-07T09:36:34;4.80;99.90
17701;DHT22;8969;48.576;12.580;2022-12-07T09:39:04;5.00;99.90
17701;DHT22;8969;48.576;12.580;2022-12-07T09:41:33;5.00;99.90
17701;DHT22;8969;48.576;12.580;2022-12-07T09:44:07;4.80;99.90
17701;DHT22;8969;48.576;12.580;2022-12-07T09:46:37;4.70;99.90
17701;DHT22;8969;48.576;12.580;2022-12-07T09:49:11;4.70;99.90
17701;DHT22;8969;48.576;12.580;2022-12-07T09:51:40;4.60;99.90
17701;DHT22;8969;48.576;12.580;2022-12-07T09:54:12;4.60;99.90
17701;DHT22;8969;48.576;12.580;2022-12-07T09:56:40;4.60;99.90
17701;DHT22;8969;48.576;12.580;2022-12-07T09:59:13;4.60;99.90
17701;DHT22;8969;48.576;12.580;2022-12-07T10:01:46;4.60;99.90
17701;DHT22;8969;48.576;12.580;2022-12-07T10:04:17;4.60;99.90
17701;DHT22;8969;48.576;12.580;2022-12-07T10:06:45;4.60;99.90
17701;DHT22;8969;48.576;12.580;2022-12-07T10:09:17;4.60;99.90
17701;DHT22;8969;48.576;12.580;2022-12-07T10:12:01;4.50;99.90
17701;DHT22;8969;48.576;12.580;2022-12-07T10:14:31;4.50;99.90
17701;DHT22;8969;48.576;12.580;2022-12-07T10:17:34;4.40;99.90
17701;DHT22;8969;48.576;12.580;2022-12-07T10:20:19;4.40;99.90
17701;DHT22;8969;48.576;12.580;2022-12-07T10:22:59;4.40;99.90
17701;DHT22;8969;48.576;12.580;2022-12-07T10:25:32;4.40;99.90
17701;DHT22;8969;48.576;12.580;2022-12-07T10:28:08;4.40;99.90
17701;DHT22;8969;48.576;12.580;2022-12-07T10:30:48;4.50;99.90
17701;DHT22;8969;48.576;12.580;2022-12-07T10:33:31;4.50;99.90
17701;DHT22;8969;48.576;12.580;2022-12-07T10:36:01;4.50;99.90
17701;DHT22;8969;48.576;12.580;2022-12-07T10:38:30;4.50;99.90
17701;DHT22;8969;48.576;12.580;2022-12-07T10:41:05;4.60;99.90
17701;DHT22;8969;48.576;12.580;2022-12-07T10:43:34;4.70;99.90
17701;DHT22;8969;48.576;12.580;2022-12-07T10:46:30;4.70;99.90
17701;DHT22;8969;48.576;12.580;2022-12-07T10:49:07;4.80;99.90
17701;DHT22;8969;48.576;12.580;2022-12-07T10:51:43;4.80;99.90
17701;DHT22;8969;48.576;12.580;2022-12-07T10:54:22;4.80;99.90
17701;DHT22;8969;48.576;12.580;2022-12-07T10:57:10;4.80;99.90
17701;DHT22;8969;48.576;12.580;2022-12-07T10:59:52;4.80;99.90
17701;DHT22;8969;48.576;12.580;2022-12-07T11:02:41;4.80;99.90
17701;DHT22;8969;48.576;12.580;2022-12-07T11:05:22;4.80;99.90
17701;DHT22;8969;48.576;12.580;2022-12-07T11:08:01;4.80;99.90
17701;DHT22;8969;48.576;12.580;2022-12-07T11:10:38;4.80;99.90
17701;DHT22;8969;48.576;12.580;2022-12-07T11:13:23;4.80;99.90
17701;DHT22;8969;48.576;12.580;2022-12-07T11:16:05;4.90;99.90
17701;DHT22;8969;48.576;12.580;2022-12-07T11:18:46;5.00;99.90
17701;DHT22;8969;48.576;12.580;2022-12-07T11:21:26;4.90;99.90
17701;DHT22;8969;48.576;12.580;2022-12-07T11:24:01;5.00;99.90
17701;DHT22;8969;48.576;12.580;2022-12-07T11:26:44;5.00;99.90
17701;DHT22;8969;48.576;12.580;2022-12-07T11:29:37;5.00;99.90
17701;DHT22;8969;48.576;12.580;2022-12-07T11:32:14;5.10;99.90
17701;DHT22;8969;48.576;12.580;2022-12-07T11:34:55;5.10;99.90
17701;DHT22;8969;48.576;12.580;2022-12-07T11:37:31;5.10;99.90
17701;DHT22;8969;48.576;12.580;2022-12-07T11:40:15;5.10;99.90
17701;DHT22;8969;48.576;12.580;2022-12-07T11:42:49;5.10;99.90
17701;DHT22;8969;48.576;12.580;2022-12-07T11:45:22;5.10;99.90
17701;DHT22;8969;48.576;12.580;2022-12-07T11:47:55;5.10;99.90
17701;DHT22;8969;48.576;12.580;2022-12-07T11:50:32;5.10;99.90
17701;DHT22;8969;48.576;12.580;2022-12-07T11:53:05;5.10;99.90
17701;DHT22;8969;48.576;12.580;2022-12-07T11:55:43;5.10;99.90
17701;DHT22;8969;48.576;12.580;2022-12-07T11:58:23;5.20;99.90
17701;DHT22;8969;48.576;12.580;2022-12-07T12:01:11;5.10;99.90
17701;DHT22;8969;48.576;12.580;2022-12-07T12:03:45;5.20;99.90
17701;DHT22;8969;48.576;12.580;2022-12-07T12:06:19;5.20;99.90
17701;DHT22;8969;48.576;12.580;2022-12-07T12:08:53;5.20;99.90
17701;DHT22;8969;48.576;12.580;2022-12-07T12:15:23;5.10;99.90
17701;DHT22;8969;48.576;12.580;2022-12-07T12:18:27;5.20;99.90
17701;DHT22;8969;48.576;12.580;2022-12-07T12:21:03;5.20;99.90
17701;DHT22;8969;48.576;12.580;2022-12-07T12:23:38;5.20;99.90
17701;DHT22;8969;48.576;12.580;2022-12-07T12:26:15;5.20;99.90
17701;DHT22;8969;48.576;12.580;2022-12-07T12:28:52;5.20;99.90
17701;DHT22;8969;48.576;12.580;2022-12-07T12:31:33;5.20;99.90
17701;DHT22;8969;48.576;12.580;2022-12-07T12:34:31;5.10;99.90
17701;DHT22;8969;48.576;12.580;2022-12-07T12:37:00;5.10;99.90
17701;DHT22;8969;48.576;12.580;2022-12-07T12:39:28;5.10;99.90
17701;DHT22;8969;48.576;12.580;2022-12-07T12:41:58;5.20;99.90
17701;DHT22;8969;48.576;12.580;2022-12-07T12:45:03;5.20;99.90
17701;DHT22;8969;48.576;12.580;2022-12-07T12:50:31;5.00;99.90
17701;DHT22;8969;48.576;12.580;2022-12-07T12:53:15;5.10;99.90
17701;DHT22;8969;48.576;12.580;2022-12-07T12:58:46;5.10;99.90
17701;DHT22;8969;48.576;12.580;2022-12-07T13:01:48;5.10;99.90
17701;DHT22;8969;48.576;12.580;2022-12-07T13:04:39;5.10;99.90
17701;DHT22;8969;48.576;12.580;2022-12-07T13:10:39;5.10;99.90
17701;DHT22;8969;48.576;12.580;2022-12-07T13:13:37;5.10;99.90
17701;DHT22;8969;48.576;12.580;2022-12-07T13:16:37;5.10;99.90
17701;DHT22;8969;48.576;12.580;2022-12-07T13:25:30;5.10;99.90
17701;DHT22;8969;48.576;12.580;2022-12-07T13:28:09;5.10;99.90
17701;DHT22;8969;48.576;12.580;2022-12-07T13:30:45;5.10;99.90
17701;DHT22;8969;48.576;12.580;2022-12-07T13:33:15;5.10;99.90
17701;DHT22;8969;48.576;12.580;2022-12-07T13:35:45;5.10;99.90
17701;DHT22;8969;48.576;12.580;2022-12-07T13:38:22;5.10;99.90
17701;DHT22;8969;48.576;12.580;2022-12-07T13:41:21;5.10;99.90
17701;DHT22;8969;48.576;12.580;2022-12-07T13:43:53;5.00;99.90
17701;DHT22;8969;48.576;12.580;2022-12-07T13:46:27;5.00;99.90
17701;DHT22;8969;48.576;12.580;2022-12-07T13:48:58;5.00;99.90
17701;DHT22;8969;48.576;12.580;2022-12-07T13:51:27;5.00;99.90
17701;DHT22;8969;48.576;12.580;2022-12-07T13:54:00;4.90;99.90
17701;DHT22;8969;48.576;12.580;2022-12-07T13:56:35;4.90;99.90
17701;DHT22;8969;48.576;12.580;2022-12-07T13:59:07;4.80;99.90
17701;DHT22;8969;48.576;12.580;2022-12-07T14:01:39;4.70;99.90
17701;DHT22;8969;48.576;12.580;2022-12-07T14:04:31;4.80;99.90
17701;DHT22;8969;48.576;12.580;2022-12-07T14:07:00;4.80;99.90
17701;DHT22;8969;48.576;12.580;2022-12-07T14:09:29;4.80;99.90
17701;DHT22;8969;48.576;12.580;2022-12-07T14:11:59;4.70;99.90
17701;DHT22;8969;48.576;12.580;2022-12-07T14:14:33;4.80;99.90
17701;DHT22;8969;48.576;12.580;2022-12-07T14:17:12;4.80;99.90
17701;DHT22;8969;48.576;12.580;2022-12-07T14:19:48;4.70;99.90
17701;DHT22;8969;48.576;12.580;2022-12-07T14:22:29;4.70;99.90
17701;DHT22;8969;48.576;12.580;2022-12-07T14:25:14;4.70;99.90
17701;DHT22;8969;48.576;12.580;2022-12-07T14:27:56;4.70;99.90
17701;DHT22;8969;48.576;12.580;2022-12-07T14:30:27;4.70;99.90
17701;DHT22;8969;48.576;12.580;2022-12-07T14:32:58;4.60;99.90
17701;DHT22;8969;48.576;12.580;2022-12-07T14:35:27;4.60;99.90
17701;DHT22;8969;48.576;12.580;2022-12-07T14:37:56;4.60;99.90
17701;DHT22;8969;48.576;12.580;2022-12-07T14:40:26;4.60;99.90
17701;DHT22;8969;48.576;12.580;2022-12-07T14:42:58;4.60;99.90
17701;DHT22;8969;48.576;12.580;2022-12-07T14:45:28;4.60;99.90
17701;DHT22;8969;48.576;12.580;2022-12-07T14:47:56;4.50;99.90
17701;DHT22;8969;48.576;12.580;2022-12-07T14:50:49;4.60;99.90
17701;DHT22;8969;48.576;12.580;2022-12-07T14:53:42;4.50;99.90
17701;DHT22;8969;48.576;12.580;2022-12-07T14:56:17;4.50;99.90
17701;DHT22;8969;48.576;12.580;2022-12-07T14:58:46;4.50;99.90
17701;DHT22;8969;48.576;12.580;2022-12-07T15:01:16;4.40;99.90
17701;DHT22;8969;48.576;12.580;2022-12-07T15:03:44;4.40;99.90
17701;DHT22;8969;48.576;12.580;2022-12-07T15:06:15;4.40;99.90
17701;DHT22;8969;48.576;12.580;2022-12-07T15:08:43;4.40;99.90
17701;DHT22;8969;48.576;12.580;2022-12-07T15:11:12;4.30;99.90
17701;DHT22;8969;48.576;12.580;2022-12-07T15:13:40;4.30;99.90
17701;DHT22;8969;48.576;12.580;2022-12-07T15:16:27;4.30;99.90
17701;DHT22;8969;48.576;12.580;2022-12-07T15:19:14;4.30;99.90
17701;DHT22;8969;48.576;12.580;2022-12-07T15:21:55;4.20;99.90
17701;DHT22;8969;48.576;12.580;2022-12-07T15:24:23;4.20;99.90
17701;DHT22;8969;48.576;12.580;2022-12-07T15:26:52;4.20;99.90
17701;DHT22;8969;48.576;12.580;2022-12-07T15:29:20;4.20;99.90
17701;DHT22;8969;48.576;12.580;2022-12-07T15:31:51;4.20;99.90
17701;DHT22;8969;48.576;12.580;2022-12-07T15:34:23;4.20;99.90
17701;DHT22;8969;48.576;12.580;2022-12-07T15:36:53;4.10;99.90
17701;DHT22;8969;48.576;12.580;2022-12-07T15:39:21;4.10;99.90
17701;DHT22;8969;48.576;12.580;2022-12-07T15:41:49;4.10;99.90
17701;DHT22;8969;48.576;12.580;2022-12-07T15:44:18;4.10;99.90
17701;DHT22;8969;48.576;12.580;2022-12-07T15:47:05;4.10;99.90
17701;DHT22;8969;48.576;12.580;2022-12-07T15:49:33;4.00;99.90
17701;DHT22;8969;48.576;12.580;2022-12-07T15:52:02;4.10;99.90
17701;DHT22;8969;48.576;12.580;2022-12-07T15:54:30;4.00;99.90
17701;DHT22;8969;48.576;12.580;2022-12-07T15:56:59;4.00;99.90
17701;DHT22;8969;48.576;12.580;2022-12-07T15:59:28;4.00;99.90
17701;DHT22;8969;48.576;12.580;2022-12-07T16:01:56;4.00;99.90
17701;DHT22;8969;48.576;12.580;2022-12-07T16:04:28;4.00;99.90
17701;DHT22;8969;48.576;12.580;2022-12-07T16:06:57;4.00;99.90
17701;DHT22;8969;48.576;12.580;2022-12-07T16:09:25;4.00;99.90
17701;DHT22;8969;48.576;12.580;2022-12-07T16:11:54;3.90;99.90
17701;DHT22;8969;48.576;12.580;2022-12-07T16:14:22;3.90;99.90
17701;DHT22;8969;48.576;12.580;2022-12-07T16:16:50;3.90;99.90
17701;DHT22;8969;48.576;12.580;2022-12-07T16:19:19;3.90;99.90
17701;DHT22;8969;48.576;12.580;2022-12-07T16:21:48;3.90;99.90
17701;DHT22;8969;48.576;12.580;2022-12-07T16:24:16;3.90;99.90
17701;DHT22;8969;48.576;12.580;2022-12-07T16:26:44;3.90;99.90
17701;DHT22;8969;48.576;12.580;2022-12-07T16:29:17;3.80;99.90
17701;DHT22;8969;48.576;12.580;2022-12-07T16:31:45;3.80;99.90
17701;DHT22;8969;48.576;12.580;2022-12-07T16:34:13;3.80;99.90
17701;DHT22;8969;48.576;12.580;2022-12-07T16:36:42;3.80;99.90
17701;DHT22;8969;48.576;12.580;2022-12-07T16:39:32;3.80;99.90
17701;DHT22;8969;48.576;12.580;2022-12-07T16:42:00;3.80;99.90
17701;DHT22;8969;48.576;12.580;2022-12-07T16:44:29;3.80;99.90